Time;durP1;ratioP1;P1;durP2;ratioP2;P2;SDS_P1;SDS_P2;PMS_P1;PMS_P2;Temp;Humidity;BMP_temperature;BMP_pressure;BME280_temperature;BME280_humidity;BME280_pressure;Samples;Min_cycle;Max_cycle;Signal;HPM_P1;HPM_P2
2021/04/01 00:00:23;;;;;;;;;;;;;;;-144.34;100.00;60189.88;5037571;28;20338;-85
2021/04/01 00:02:52;;;;;;;;;;;;;;;-144.34;100.00;60189.88;5030818;28;19973;-85
2021/04/01 00:05:18;;;;;;;;;;;;;;;-144.34;100.00;60189.88;5056280;28;20224;-84
2021/04/01 00:07:44;;;;;;;;;;;;;;;-144.34;100.00;60189.88;5038055;28;20015;-85
2021/04/01 00:10:10;;;;;;;;;;;;;;;-144.34;100.00;60189.88;5037863;28;19998;-85
2021/04/01 00:12:36;;;;;;;;;;;;;;;-144.34;100.00;60189.88;5037637;28;19921;-85
2021/04/01 00:15:01;;;;;;;;;;;;;;;-144.34;100.00;60189.88;5037363;28;19927;-84
2021/04/01 00:17:26;;;;;;;;;;;;;;;-144.34;100.00;60189.88;5038052;28;20044;-85
2021/04/01 00:19:52;;;;;;;;;;;;;;;-144.34;100.00;60189.88;5055369;28;19931;-84
2021/04/01 00:22:17;;;;;;;;;;;;;;;-144.34;100.00;60189.88;5024048;28;20471;-84
2021/04/01 00:24:42;;;;;;;;;;;;;;;-144.34;100.00;60189.88;5037484;28;20714;-85
2021/04/01 00:27:08;;;;;;;;;;;;;;;-144.34;100.00;60189.88;5036411;28;20367;-85
2021/04/01 00:29:33;;;;;;;;;;;;;;;-144.34;100.00;60189.88;5037274;28;20550;-85
2021/04/01 00:31:58;;;;;;;;;;;;;;;-144.34;100.00;60189.88;5054591;28;19920;-85
2021/04/01 00:34:24;;;;;;;;;;;;;;;-144.34;100.00;60189.88;5037016;28;19979;-85
2021/04/01 00:36:49;;;;;;;;;;;;;;;-144.34;100.00;60189.88;5054678;28;19951;-85
2021/04/01 00:39:14;;;;;;;;;;;;;;;-144.34;100.00;60189.88;5054863;28;20371;-85
2021/04/01 00:41:40;;;;;;;;;;;;;;;-144.34;100.00;60189.88;5054360;28;20350;-85
2021/04/01 00:44:06;;;;;;;;;;;;;;;-144.34;100.00;60189.88;5055142;28;19982;-84
2021/04/01 00:46:31;;;;;;;;;;;;;;;-144.34;100.00;60189.88;5054517;28;20435;-84
2021/04/01 00:48:56;;;;;;;;;;;;;;;-144.34;100.00;60189.88;5054845;28;19921;-84
2021/04/01 00:51:22;;;;;;;;;;;;;;;-144.34;100.00;60189.88;5036959;28;19920;-85
2021/04/01 00:53:47;;;;;;;;;;;;;;;-144.34;100.00;60189.88;5035043;28;20058;-85
2021/04/01 00:56:13;;;;;;;;;;;;;;;-144.34;100.00;60189.88;5031245;28;19921;-85
2021/04/01 03:44:59;;;;;;;;;;;;;;;-144.34;100.00;60189.88;2056669;22;19924;-91
2021/04/01 03:47:24;;;;;;;;;;;;;;;-144.34;100.00;60189.88;5066151;28;20276;-91
2021/04/01 03:49:49;;;;;;;;;;;;;;;-144.34;100.00;60189.88;5094659;28;20302;-92
2021/04/01 03:52:15;;;;;;;;;;;;;;;-144.34;100.00;60189.88;5092565;28;21168;-93
2021/04/01 03:54:43;;;;;;;;;;;;;;;-144.34;100.00;60189.88;5094278;28;19916;-92
2021/04/01 03:57:08;;;;;;;;;;;;;;;-144.34;100.00;60189.88;5075820;28;20012;-93
2021/04/01 03:59:43;;;;;;;;;;;;;;;-144.34;100.00;60189.88;5084288;28;20014;-92
2021/04/01 04:05:03;;;;;;;;;;;;;;;-144.34;100.00;60189.88;5095471;28;19927;-92
2021/04/01 04:07:55;;;;;;;;;;;;;;;-144.34;100.00;60189.88;5077415;28;19919;-93
2021/04/01 04:10:29;;;;;;;;;;;;;;;-144.34;100.00;60189.88;5076887;28;20630;-93
2021/04/01 04:15:22;;;;;;;;;;;;;;;-144.34;100.00;60189.88;5074309;28;19920;-92
2021/04/01 04:17:47;;;;;;;;;;;;;;;-144.34;100.00;60189.88;5073562;28;19927;-93
2021/04/01 04:20:13;;;;;;;;;;;;;;;-144.34;100.00;60189.88;5076470;28;19923;-92
2021/04/01 04:22:39;;;;;;;;;;;;;;;-144.34;100.00;60189.88;5092956;28;19931;-93
2021/04/01 04:25:07;;;;;;;;;;;;;;;-144.34;100.00;60189.88;5075255;28;19919;-92
2021/04/01 04:30:00;;;;;;;;;;;;;;;-144.34;100.00;60189.88;5079045;28;20035;-91
2021/04/01 04:32:29;;;;;;;;;;;;;;;-144.34;100.00;60189.88;5075069;28;19972;-92
2021/04/01 04:34:55;;;;;;;;;;;;;;;-144.34;100.00;60189.88;5076576;28;19930;-92
2021/04/01 04:37:20;;;;;;;;;;;;;;;-144.34;100.00;60189.88;5075051;28;19923;-92
2021/04/01 04:39:46;;;;;;;;;;;;;;;-144.34;100.00;60189.88;5064612;28;20363;-93
2021/04/01 04:42:12;;;;;;;;;;;;;;;-144.34;100.00;60189.88;5091216;28;19919;-92
2021/04/01 04:44:38;;;;;;;;;;;;;;;-144.34;100.00;60189.88;5092281;28;19967;-91
2021/04/01 04:47:03;;;;;;;;;;;;;;;-144.34;100.00;60189.88;5075308;28;20417;-92
2021/04/01 04:49:29;;;;;;;;;;;;;;;-144.34;100.00;60189.88;5063039;28;19923;-92
2021/04/01 04:51:54;;;;;;;;;;;;;;;-144.34;100.00;60189.88;5056947;28;19916;-91
2021/04/01 04:54:19;;;;;;;;;;;;;;;-144.34;100.00;60189.88;5059061;28;19919;-91
2021/04/01 04:56:46;;;;;;;;;;;;;;;-144.34;100.00;60189.88;5058825;28;19920;-91
2021/04/01 05:04:44;;;;;;;;;;;;;;;-144.34;100.00;60189.88;5075501;28;19927;-92
2021/04/01 05:07:10;;;;;;;;;;;;;;;-144.34;100.00;60189.88;5059612;28;19920;-93
2021/04/01 05:09:35;;;;;;;;;;;;;;;-144.34;100.00;60189.88;5063802;28;19927;-92
2021/04/01 05:12:00;;;;;;;;;;;;;;;-144.34;100.00;60189.88;5057050;28;20736;-92
2021/04/01 05:14:26;;;;;;;;;;;;;;;-144.34;100.00;60189.88;5095548;28;19923;-91
2021/04/01 05:16:51;;;;;;;;;;;;;;;-144.34;100.00;60189.88;5056252;28;20333;-92
2021/04/01 05:19:17;;;;;;;;;;;;;;;-144.34;100.00;60189.88;5075907;28;19958;-93
2021/04/01 05:24:09;;;;;;;;;;;;;;;-144.34;100.00;60189.88;5081571;28;20914;-91
2021/04/01 05:29:12;;;;;;;;;;;;;;;-144.34;100.00;60189.88;5081500;28;19920;-92
2021/04/01 05:31:40;;;;;;;;;;;;;;;-144.34;100.00;60189.88;5065974;28;19919;-91
2021/04/01 05:34:05;;;;;;;;;;;;;;;-144.34;100.00;60189.88;5072197;28;19927;-92
2021/04/01 05:36:35;;;;;;;;;;;;;;;-144.34;100.00;60189.88;5061319;28;19920;-92
2021/04/01 05:39:00;;;;;;;;;;;;;;;-144.34;100.00;60189.88;5090547;28;19923;-92
2021/04/01 05:41:27;;;;;;;;;;;;;;;-144.34;100.00;60189.88;5056648;28;19920;-92
2021/04/01 05:44:04;;;;;;;;;;;;;;;-144.34;100.00;60189.88;5076415;28;19934;-92
2021/04/01 06:04:45;;;;;;;;;;;;;;;-144.34;100.00;60189.88;5085989;28;19919;-91
2021/04/01 06:07:19;;;;;;;;;;;;;;;-144.34;100.00;60189.88;5080076;28;19962;-92
2021/04/01 06:09:48;;;;;;;;;;;;;;;-144.34;100.00;60189.88;5049840;28;19924;-88
2021/04/01 06:12:13;;;;;;;;;;;;;;;-144.34;100.00;60189.88;5075826;28;19924;-92
2021/04/01 06:14:39;;;;;;;;;;;;;;;-144.34;100.00;60189.88;5077311;28;20009;-92
2021/04/01 06:17:05;;;;;;;;;;;;;;;-144.34;100.00;60189.88;5077821;28;19924;-87
2021/04/01 06:19:42;;;;;;;;;;;;;;;-144.34;100.00;60189.88;5108710;28;19915;-94
2021/04/01 06:22:12;;;;;;;;;;;;;;;-144.34;100.00;60189.88;5072491;28;19920;-96
2021/04/01 06:24:40;;;;;;;;;;;;;;;-144.34;100.00;60189.88;5097160;28;19920;-96
2021/04/01 06:27:15;;;;;;;;;;;;;;;-144.34;100.00;60189.88;5085426;28;19916;-96
2021/04/01 06:29:42;;;;;;;;;;;;;;;-144.34;100.00;60189.88;5076652;28;20437;-96
2021/04/01 06:32:26;;;;;;;;;;;;;;;-144.34;100.00;60189.88;5101941;28;19920;-95
2021/04/01 06:34:53;;;;;;;;;;;;;;;-144.34;100.00;60189.88;5081057;28;19923;-96
2021/04/01 06:40:05;;;;;;;;;;;;;;;-144.34;100.00;60189.88;5072953;28;20264;-95
2021/04/01 06:42:33;;;;;;;;;;;;;;;-144.34;100.00;60189.88;5056428;28;19930;-96
2021/04/01 06:45:05;;;;;;;;;;;;;;;-144.34;100.00;60189.88;5085237;28;19920;-95
2021/04/01 06:47:32;;;;;;;;;;;;;;;-144.34;100.00;60189.88;5070964;28;20700;-96
2021/04/01 06:50:04;;;;;;;;;;;;;;;-144.34;100.00;60189.88;5072492;28;20171;-96
2021/04/01 06:52:35;;;;;;;;;;;;;;;-144.34;100.00;60189.88;5078302;28;19920;-96
2021/04/01 06:55:15;;;;;;;;;;;;;;;-144.34;100.00;60189.88;5081512;28;20298;-96
2021/04/01 06:57:57;;;;;;;;;;;;;;;-144.34;100.00;60189.88;5087746;28;19930;-95
2021/04/01 07:03:05;;;;;;;;;;;;;;;-144.34;100.00;60189.88;5112393;28;19975;-96
2021/04/01 07:05:47;;;;;;;;;;;;;;;-144.34;100.00;60189.88;5093761;28;19920;-96
2021/04/01 07:08:41;;;;;;;;;;;;;;;-144.34;100.00;60189.88;5086951;28;20503;-96
2021/04/01 07:11:12;;;;;;;;;;;;;;;-144.34;100.00;60189.88;5092513;28;19930;-96
2021/04/01 07:13:44;;;;;;;;;;;;;;;-144.34;100.00;60189.88;5087492;28;19992;-95
2021/04/01 07:16:36;;;;;;;;;;;;;;;-144.34;100.00;60189.88;5076910;28;20010;-95
2021/04/01 07:46:39;;;;;;;;;;;;;;;-144.34;100.00;60189.88;5097170;28;20728;-96
2021/04/01 07:49:16;;;;;;;;;;;;;;;-144.34;100.00;60189.88;5092640;28;19978;-93
2021/04/01 07:54:11;;;;;;;;;;;;;;;-144.34;100.00;60189.88;5070648;28;20328;-93
2021/04/01 07:56:49;;;;;;;;;;;;;;;-144.34;100.00;60189.88;5083072;28;19920;-89
2021/04/01 07:59:28;;;;;;;;;;;;;;;-144.34;100.00;60189.88;5056327;28;19916;-93
2021/04/01 08:02:07;;;;;;;;;;;;;;;-144.34;100.00;60189.88;5056237;28;19916;-95
2021/04/01 08:04:32;;;;;;;;;;;;;;;-144.34;100.00;60189.88;5091337;28;20212;-93
2021/04/01 08:07:08;;;;;;;;;;;;;;;-144.34;100.00;60189.88;5089637;28;20268;-94
2021/04/01 08:09:43;;;;;;;;;;;;;;;-144.34;100.00;60189.88;5080589;28;19919;-93
2021/04/01 08:12:24;;;;;;;;;;;;;;;-144.34;100.00;60189.88;5099811;28;19938;-94
2021/04/01 08:15:02;;;;;;;;;;;;;;;-144.34;100.00;60189.88;5063119;28;19958;-93
2021/04/01 08:17:29;;;;;;;;;;;;;;;-144.34;100.00;60189.88;5073382;28;19920;-94
2021/04/01 08:19:55;;;;;;;;;;;;;;;-144.34;100.00;60189.88;5051571;28;19920;-94
2021/04/01 08:22:21;;;;;;;;;;;;;;;-144.34;100.00;60189.88;5062509;28;19924;-93
2021/04/01 08:24:51;;;;;;;;;;;;;;;-144.34;100.00;60189.88;5053342;28;19920;-93
2021/04/01 08:35:12;;;;;;;;;;;;;;;-144.34;100.00;60189.88;5078246;28;19920;-95
2021/04/01 08:37:38;;;;;;;;;;;;;;;-144.34;100.00;60189.88;5092666;28;20329;-94
2021/04/01 08:40:03;;;;;;;;;;;;;;;-144.34;100.00;60189.88;5063108;28;20400;-93
2021/04/01 08:42:34;;;;;;;;;;;;;;;-144.34;100.00;60189.88;5092522;28;20580;-93
2021/04/01 08:45:07;;;;;;;;;;;;;;;-144.34;100.00;60189.88;5046741;28;20441;-94
2021/04/01 08:47:44;;;;;;;;;;;;;;;-144.34;100.00;60189.88;5052395;28;20213;-94
2021/04/01 08:50:29;;;;;;;;;;;;;;;-144.34;100.00;60189.88;5068952;28;19927;-92
2021/04/01 08:52:57;;;;;;;;;;;;;;;-144.34;100.00;60189.88;5054437;28;19924;-93
2021/04/01 08:55:25;;;;;;;;;;;;;;;-144.34;100.00;60189.88;5076455;28;19920;-93
2021/04/01 08:57:50;;;;;;;;;;;;;;;-144.34;100.00;60189.88;5062312;28;19926;-94
2021/04/01 09:00:16;;;;;;;;;;;;;;;-144.34;100.00;60189.88;5092285;28;19919;-93
2021/04/01 09:02:51;;;;;;;;;;;;;;;-144.34;100.00;60189.88;5059797;28;20311;-93
2021/04/01 09:05:17;;;;;;;;;;;;;;;-144.34;100.00;60189.88;5073165;28;19920;-91
2021/04/01 09:07:46;;;;;;;;;;;;;;;-144.34;100.00;60189.88;5071872;28;19916;-90
2021/04/01 09:10:16;;;;;;;;;;;;;;;-144.34;100.00;60189.88;5072611;28;19924;-92
2021/04/01 09:12:53;;;;;;;;;;;;;;;-144.34;100.00;60189.88;5064484;28;20170;-90
2021/04/01 09:15:58;;;;;;;;;;;;;;;-144.34;100.00;60189.88;5059626;28;20391;-89
2021/04/01 09:18:20;;;;;;;;;;;;;;;-144.34;100.00;60189.88;5071324;28;19916;-89
2021/04/01 09:20:49;;;;;;;;;;;;;;;-144.34;100.00;60189.88;5053127;28;20027;-89
2021/04/01 09:23:15;;;;;;;;;;;;;;;-144.34;100.00;60189.88;5071705;28;19923;-90
2021/04/01 09:25:48;;;;;;;;;;;;;;;-144.34;100.00;60189.88;5060261;28;20174;-91
2021/04/01 09:28:14;;;;;;;;;;;;;;;-144.34;100.00;60189.88;5079556;28;19924;-94
2021/04/01 09:30:40;;;;;;;;;;;;;;;-144.34;100.00;60189.88;5089663;28;20034;-94
2021/04/01 09:33:30;;;;;;;;;;;;;;;-144.34;100.00;60189.88;5105427;28;19927;-94
2021/04/01 09:36:25;;;;;;;;;;;;;;;-144.34;100.00;60189.88;5107997;28;19977;-91
2021/04/01 09:38:58;;;;;;;;;;;;;;;-144.34;100.00;60189.88;5092944;28;19919;-95
2021/04/01 09:41:32;;;;;;;;;;;;;;;-144.34;100.00;60189.88;5086011;28;19920;-94
2021/04/01 09:44:04;;;;;;;;;;;;;;;-144.34;100.00;60189.88;5064373;28;19919;-94
2021/04/01 09:46:31;;;;;;;;;;;;;;;-144.34;100.00;60189.88;5063334;28;19928;-92
2021/04/01 09:49:19;;;;;;;;;;;;;;;-144.34;100.00;60189.88;5089714;27;19927;-93
2021/04/01 09:51:51;;;;;;;;;;;;;;;-144.34;100.00;60189.88;5121444;27;19904;-93
2021/04/01 09:54:17;;;;;;;;;;;;;;;-144.34;100.00;60189.88;5106361;28;19915;-94
2021/04/01 09:56:54;;;;;;;;;;;;;;;-144.34;100.00;60189.88;5086227;28;19923;-93
2021/04/01 09:59:21;;;;;;;;;;;;;;;-144.34;100.00;60189.88;5093446;28;19916;-92
2021/04/01 10:01:59;;;;;;;;;;;;;;;-144.34;100.00;60189.88;5093447;28;19908;-93
2021/04/01 10:04:25;;;;;;;;;;;;;;;-144.34;100.00;60189.88;5089018;28;19964;-89
2021/04/01 10:06:50;;;;;;;;;;;;;;;-144.34;100.00;60189.88;5079756;28;19923;-93
2021/04/01 10:09:17;;;;;;;;;;;;;;;-144.34;100.00;60189.88;5070148;28;19920;-93
2021/04/01 10:12:00;;;;;;;;;;;;;;;-144.34;100.00;60189.88;5064043;28;19920;-94
2021/04/01 10:14:27;;;;;;;;;;;;;;;-144.34;100.00;60189.88;5074255;28;19926;-93
2021/04/01 10:16:57;;;;;;;;;;;;;;;-144.34;100.00;60189.88;5063853;28;20504;-95
2021/04/01 10:19:25;;;;;;;;;;;;;;;-144.34;100.00;60189.88;5076072;28;19926;-94
2021/04/01 10:21:50;;;;;;;;;;;;;;;-144.34;100.00;60189.88;5072665;28;20489;-91
2021/04/01 10:24:22;;;;;;;;;;;;;;;-144.34;100.00;60189.88;5078825;28;19951;-90
2021/04/01 10:27:04;;;;;;;;;;;;;;;-144.34;100.00;60189.88;5112551;28;19942;-92
